^^
Peaceful Hills Weather Station Historical Data
 
Daily Summary for March 03, 2021 Units:  English    Metric   Both
Daily Weekly Monthly Yearly
  Current: High: Low: Average:
Temperature: 46.5 °F 68.2 °F 29.6 °F 48.3 °F
Dew Point: 38.2 °F 41.2 °F 27.6 °F 34.4 °F
Humidity: 72.6% 92% 30% 65%
Wind Speed: 0mph 2.2mph 0mph 0.1mph
Wind Gust: 0mph 10mph - -
WindCalm - - SW
Pressure: 30.17 in 30.24 in 30.11 in -
Precipitation: 0.00 in      
 
 
Tabular Data for March 03, 2021
Time Temperature Dew Point Pressure Wind Wind Speed Wind Gust Humidity Rainfall Rate (Hourly)
00:04 36.2 °F 32.4 °F 30.20 in Calm     86% 0.00 in
00:09 35.9 °F 32.2 °F 30.20 in Calm     86.4% 0.00 in
00:14 35.6 °F 32.1 °F 30.19 in Calm     87% 0.00 in
00:19 35.4 °F 32.2 °F 30.19 in Calm     88% 0.00 in
00:24 35.2 °F 32 °F 30.19 in Calm     88% 0.00 in
00:29 35 °F 31.8 °F 30.19 in SSW 0.4 mph 2 mph 88% 0.00 in
00:34 34.8 °F 31.9 °F 30.19 in Calm     88.8% 0.00 in
00:39 34.8 °F 31.9 °F 30.19 in Calm     89% 0.00 in
00:44 34.6 °F 31.7 °F 30.19 in Calm     89% 0.00 in
00:49 34.4 °F 31.5 °F 30.19 in Calm     89% 0.00 in
00:54 34.2 °F 31.1 °F 30.19 in Calm     88.4% 0.00 in
00:59 33.9 °F 31 °F 30.19 in Calm     89% 0.00 in
01:04 33.7 °F 30.8 °F 30.19 in Calm     89% 0.00 in
01:09 33.6 °F 31 °F 30.18 in Calm     90% 0.00 in
01:14 33.6 °F 31.1 °F 30.18 in Calm     90.2% 0.00 in
01:19 33.7 °F 31.3 °F 30.18 in SSW 0.4 mph 4 mph 90.4% 0.00 in
01:24 33.8 °F 31.4 °F 30.17 in Calm   4 mph 90.6% 0.00 in
01:29 33.8 °F 31.4 °F 30.18 in Calm     90.8% 0.00 in
01:34 33.6 °F 31 °F 30.18 in Calm     90% 0.00 in
01:39 33.3 °F 30.7 °F 30.18 in Calm     90% 0.00 in
01:44 33.1 °F 30.5 °F 30.18 in Calm     90% 0.00 in
01:49 32.9 °F 30.3 °F 30.17 in Calm     90% 0.00 in
01:54 32.8 °F 30.4 °F 30.17 in Calm     90.6% 0.00 in
01:59 32.6 °F 30.3 °F 30.17 in Calm     91% 0.00 in
02:04 32.4 °F 30.1 °F 30.17 in Calm     91% 0.00 in
02:09 32.2 °F 29.9 °F 30.17 in Calm     91% 0.00 in
02:14 32.2 °F 29.9 °F 30.17 in SW 0.4 mph 4 mph 91% 0.00 in
02:19 32.1 °F 29.8 °F 30.17 in Calm   4 mph 91% 0.00 in
02:24 31.9 °F 29.6 °F 30.17 in Calm     91% 0.00 in
02:29 31.7 °F 29.4 °F 30.17 in Calm     91% 0.00 in
02:34 31.5 °F 29.2 °F 30.17 in Calm     91% 0.00 in
02:39 31.4 °F 29.1 °F 30.17 in Calm     91% 0.00 in
02:44 31.2 °F 28.9 °F 30.17 in Calm     91% 0.00 in
02:49 31.1 °F 28.8 °F 30.17 in Calm     91% 0.00 in
02:54 31.1 °F 28.8 °F 30.17 in Calm     91% 0.00 in
02:59 31 °F 28.7 °F 30.17 in Calm     91% 0.00 in
03:04 30.8 °F 28.5 °F 30.17 in Calm     91% 0.00 in
03:09 30.8 °F 28.8 °F 30.17 in Calm     92% 0.00 in
03:14 30.7 °F 28.7 °F 30.17 in Calm     92% 0.00 in
03:19 30.5 °F 28.4 °F 30.17 in Calm     91.4% 0.00 in
03:24 30.4 °F 28.4 °F 30.17 in Calm     92% 0.00 in
03:29 30.4 °F 28.4 °F 30.17 in Calm     92% 0.00 in
03:34 30.3 °F 28.3 °F 30.17 in Calm     92% 0.00 in
03:39 30.2 °F 28.2 °F 30.17 in Calm     92% 0.00 in
03:44 30.2 °F 28.2 °F 30.17 in Calm     92% 0.00 in
03:49 30.1 °F 28.1 °F 30.18 in Calm     92% 0.00 in
03:54 30.1 °F 28.1 °F 30.18 in Calm     92% 0.00 in
03:59 30 °F 28 °F 30.18 in Calm     92% 0.00 in
04:04 30 °F 28 °F 30.18 in Calm     92% 0.00 in
04:09 30 °F 28 °F 30.18 in Calm     92% 0.00 in
04:14 30 °F 28 °F 30.18 in Calm     92% 0.00 in
04:19 30.1 °F 28.1 °F 30.18 in Calm     92% 0.00 in
04:24 30.1 °F 28.1 °F 30.19 in Calm     92% 0.00 in
04:29 30.1 °F 28.1 °F 30.19 in Calm     92% 0.00 in
04:34 30 °F 28 °F 30.19 in Calm     92% 0.00 in
04:44 29.9 °F 27.9 °F 30.19 in Calm     92% 0.00 in
04:49 29.9 °F 27.9 °F 30.19 in Calm     92% 0.00 in
04:54 29.8 °F 27.8 °F 30.19 in Calm     92% 0.00 in
04:59 29.8 °F 27.8 °F 30.19 in Calm     92% 0.00 in
05:04 29.7 °F 27.7 °F 30.19 in Calm     92% 0.00 in
05:09 29.7 °F 27.7 °F 30.19 in Calm     92% 0.00 in
05:14 29.7 °F 27.7 °F 30.19 in Calm     92% 0.00 in
05:19 29.6 °F 27.6 °F 30.19 in Calm     92% 0.00 in
05:24 29.6 °F 27.6 °F 30.19 in Calm     92% 0.00 in
05:29 29.8 °F 27.8 °F 30.19 in Calm     92% 0.00 in
05:34 29.7 °F 27.7 °F 30.19 in Calm     92% 0.00 in
05:39 29.6 °F 27.6 °F 30.19 in Calm     92% 0.00 in
05:44 29.6 °F 27.6 °F 30.20 in Calm     92% 0.00 in
05:49 29.7 °F 27.7 °F 30.20 in Calm     92% 0.00 in
05:54 29.7 °F 27.7 °F 30.20 in Calm     92% 0.00 in
05:59 29.6 °F 27.6 °F 30.20 in Calm     92% 0.00 in
06:04 29.6 °F 27.6 °F 30.20 in Calm     92% 0.00 in
06:14 29.8 °F 27.8 °F 30.20 in Calm     92% 0.00 in
06:19 29.8 °F 27.8 °F 30.21 in Calm     92% 0.00 in
06:24 29.8 °F 27.8 °F 30.21 in Calm     92% 0.00 in
06:29 29.7 °F 27.7 °F 30.21 in Calm     92% 0.00 in
06:34 29.7 °F 27.7 °F 30.21 in Calm     92% 0.00 in
06:39 29.7 °F 27.7 °F 30.21 in Calm     92% 0.00 in
06:44 29.8 °F 27.8 °F 30.21 in Calm     92% 0.00 in
06:49 29.7 °F 27.7 °F 30.21 in Calm     92% 0.00 in
06:54 29.7 °F 27.7 °F 30.21 in Calm     92% 0.00 in
06:59 29.8 °F 27.8 °F 30.22 in Calm     92% 0.00 in
07:04 29.9 °F 27.9 °F 30.22 in Calm     92% 0.00 in
07:09 30 °F 28 °F 30.22 in Calm     92% 0.00 in
07:14 30.3 °F 28.3 °F 30.22 in Calm     92% 0.00 in
07:19 30.7 °F 28.6 °F 30.22 in Calm     91.8% 0.00 in
07:24 31.3 °F 29.1 °F 30.22 in Calm     91.6% 0.00 in
07:29 31.7 °F 29.4 °F 30.22 in Calm   2 mph 91% 0.00 in
07:34 32 °F 29.8 °F 30.22 in Calm     91.6% 0.00 in
07:39 32.4 °F 30.3 °F 30.23 in Calm     91.8% 0.00 in
07:44 32.6 °F 30.5 °F 30.23 in Calm     92% 0.00 in
07:49 32.9 °F 30.6 °F 30.23 in Calm     91% 0.00 in
07:54 33.4 °F 31.2 °F 30.23 in Calm   2 mph 91.4% 0.00 in
07:59 34 °F 31.7 °F 30.23 in Calm     91.2% 0.00 in
08:04 34.7 °F 32.6 °F 30.23 in Calm   2 mph 92% 0.00 in
08:09 35.5 °F 33.4 °F 30.23 in Calm   2 mph 92% 0.00 in
08:14 36.3 °F 34.2 °F 30.23 in Calm     92% 0.00 in
08:19 37 °F 34.9 °F 30.23 in Calm     92% 0.00 in
08:24 37.8 °F 35.6 °F 30.23 in Calm   2 mph 91.6% 0.00 in
08:29 38.6 °F 36.4 °F 30.23 in Calm     91.6% 0.00 in
08:34 39.4 °F 37.3 °F 30.24 in Calm     92% 0.00 in
08:39 40.3 °F 38 °F 30.24 in Calm     91.4% 0.00 in
08:44 41 °F 38.5 °F 30.24 in West 1 mph 5 mph 90.6% 0.00 in
08:49 41.8 °F 39 °F 30.24 in Calm   5 mph 89.6% 0.00 in
08:54 42.6 °F 39.4 °F 30.24 in West 0.8 mph 4 mph 88.6% 0.00 in
08:59 43.3 °F 39.9 °F 30.24 in Calm   4 mph 87.6% 0.00 in
09:04 44.2 °F 40.4 °F 30.24 in Calm   2 mph 86.4% 0.00 in
09:09 45.1 °F 40.7 °F 30.24 in Calm   4 mph 84.4% 0.00 in
09:14 45.9 °F 40.6 °F 30.24 in West 0.4 mph 7 mph 81.8% 0.00 in
09:19 46.7 °F 40.8 °F 30.24 in Calm   2 mph 80% 0.00 in
09:24 47.3 °F 40.9 °F 30.24 in Calm     78.2% 0.00 in
09:29 48.1 °F 41.2 °F 30.24 in Calm     77% 0.00 in
09:34 48.7 °F 41 °F 30.24 in Calm   2 mph 74.6% 0.00 in
09:39 49.4 °F 40.7 °F 30.24 in Calm   2 mph 71.8% 0.00 in
09:44 50 °F 40.4 °F 30.24 in Calm   10 mph 69.6% 0.00 in
09:49 50.5 °F 40.6 °F 30.24 in Calm   10 mph 68.8% 0.00 in
09:54 51.1 °F 40.7 °F 30.23 in Calm   4 mph 67.4% 0.00 in
09:59 51.5 °F 39.9 °F 30.23 in Calm   4 mph 64.4% 0.00 in
10:04 52 °F 40.4 °F 30.23 in Calm     64.6% 0.00 in
10:09 52.6 °F 40.3 °F 30.23 in Calm   2 mph 63% 0.00 in
10:14 53.1 °F 40.2 °F 30.23 in SSW 0.4 mph 2 mph 61.6% 0.00 in
10:19 53.3 °F 39.7 °F 30.23 in Calm   2 mph 59.8% 0.00 in
10:24 53.6 °F 40 °F 30.23 in SSW 1 mph 5 mph 59.8% 0.00 in
10:29 53.9 °F 39.4 °F 30.22 in Calm   2 mph 57.8% 0.00 in
10:34 54 °F 38.8 °F 30.22 in Calm   2 mph 56.4% 0.00 in
10:39 54.4 °F 39.6 °F 30.22 in Calm   2 mph 57.4% 0.00 in
10:44 54.8 °F 39.7 °F 30.22 in Calm     56.6% 0.00 in
10:49 55.3 °F 39.8 °F 30.22 in Calm   2 mph 55.8% 0.00 in
10:54 55.6 °F 39.6 °F 30.22 in Calm   2 mph 54.8% 0.00 in
10:59 55.9 °F 39.8 °F 30.22 in Calm   2 mph 54.6% 0.00 in
11:04 56.4 °F 39.6 °F 30.21 in Calm   2 mph 53.2% 0.00 in
11:09 56.7 °F 38.9 °F 30.21 in Calm     51.2% 0.00 in
11:14 57 °F 39 °F 30.21 in Calm     51% 0.00 in
11:19 57.5 °F 38.9 °F 30.21 in Calm     49.8% 0.00 in
11:24 57.7 °F 38.9 °F 30.21 in Calm   2 mph 49.4% 0.00 in
11:29 57.8 °F 39.1 °F 30.20 in Calm   2 mph 49.6% 0.00 in
11:34 58.9 °F 40 °F 30.20 in Calm   2 mph 49.6% 0.00 in
11:39 59.6 °F 39 °F 30.20 in Calm     46.4% 0.00 in
11:44 59.8 °F 39.4 °F 30.20 in Calm   2 mph 46.8% 0.00 in
11:49 59.8 °F 39 °F 30.20 in Calm   2 mph 46% 0.00 in
11:54 60 °F 38 °F 30.20 in Calm   2 mph 44% 0.00 in
11:59 60.5 °F 38 °F 30.20 in Calm   2 mph 43.2% 0.00 in
12:04 60.7 °F 37.9 °F 30.19 in South 0.4 mph 4 mph 42.8% 0.00 in
12:09 61.2 °F 38.2 °F 30.19 in SE 0.4 mph 7 mph 42.6% 0.00 in
12:14 61.6 °F 36.9 °F 30.19 in Calm     39.8% 0.00 in
12:19 62.2 °F 37.2 °F 30.18 in Calm   4 mph 39.4% 0.00 in
12:24 62.5 °F 36 °F 30.18 in SSE 0.4 mph 5 mph 37.2% 0.00 in
12:29 62.7 °F 36.4 °F 30.18 in WSW 0.4 mph 5 mph 37.6% 0.00 in
12:34 63 °F 34.9 °F 30.18 in Calm   2 mph 35% 0.00 in
12:39 63.1 °F 33.1 °F 30.18 in WNW 0.4 mph 4 mph 32.4% 0.00 in
12:44 63.3 °F 32.9 °F 30.17 in Calm     32% 0.00 in
12:49 63.5 °F 34.3 °F 30.17 in Calm   2 mph 33.6% 0.00 in
12:54 63.6 °F 34.3 °F 30.16 in WNW 2.2 mph 7 mph 33.4% 0.00 in
12:59 63.6 °F 34.2 °F 30.16 in South 1.2 mph 7 mph 33.4% 0.00 in
13:04 64.1 °F 35 °F 30.16 in Calm   10 mph 33.8% 0.00 in
13:09 64.5 °F 33.6 °F 30.15 in SSE 0.4 mph 2 mph 31.4% 0.00 in
13:14 64.6 °F 33.6 °F 30.15 in WNW 1 mph 9 mph 31.4% 0.00 in
13:19 64.3 °F 33.5 °F 30.15 in West 0.4 mph 2 mph 31.6% 0.00 in
13:24 64.2 °F 33 °F 30.15 in Calm   2 mph 31.2% 0.00 in
13:29 63.7 °F 32 °F 30.15 in Calm   2 mph 30.4% 0.00 in
13:34 63.7 °F 31.7 °F 30.14 in Calm   5 mph 30% 0.00 in
13:39 64 °F 32.5 °F 30.14 in Calm   5 mph 30.8% 0.00 in
13:44 64.7 °F 33.9 °F 30.14 in Calm     31.8% 0.00 in
13:49 65 °F 34.9 °F 30.14 in Calm     32.6% 0.00 in
13:54 64.9 °F 34.6 °F 30.14 in Calm     32.4% 0.00 in
13:59 65.2 °F 35.5 °F 30.14 in Calm     33.2% 0.00 in
14:04 65.6 °F 36.5 °F 30.13 in SW 0.8 mph 7 mph 34% 0.00 in
14:09 65.6 °F 36.8 °F 30.13 in SW 0.4 mph 7 mph 34.4% 0.00 in
14:14 65.8 °F 36.4 °F 30.13 in Calm   5 mph 33.6% 0.00 in
14:19 66 °F 36.3 °F 30.13 in Calm   4 mph 33.4% 0.00 in
14:24 66.5 °F 36.2 °F 30.13 in Calm   2 mph 32.7% 0.00 in
14:29 67 °F 36.8 °F 30.13 in Calm     32.8% 0.00 in
14:34 67.3 °F 36.2 °F 30.13 in Calm   7 mph 31.8% 0.00 in
14:44 67.5 °F 37.3 °F 30.13 in Calm     32.8% 0.00 in
14:49 67.2 °F 36.5 °F 30.13 in Calm     32.2% 0.00 in
14:54 67.2 °F 37.1 °F 30.13 in Calm     33% 0.00 in
14:59 66.7 °F 36.1 °F 30.13 in Calm   7 mph 32.2% 0.00 in
15:04 66.5 °F 36 °F 30.12 in Calm     32.4% 0.00 in
15:09 66.5 °F 35.4 °F 30.12 in Calm   2 mph 31.6% 0.00 in
15:14 66.3 °F 35.1 °F 30.12 in WNW 1.8 mph 7 mph 31.4% 0.00 in
15:19 66.6 °F 36 °F 30.12 in Calm   7 mph 32.2% 0.00 in
15:24 67.1 °F 36.9 °F 30.12 in Calm     32.8% 0.00 in
15:29 67 °F 37.2 °F 30.12 in Calm     33.4% 0.00 in
15:34 67 °F 36.9 °F 30.12 in SW 1.8 mph 7 mph 33% 0.00 in
15:39 67.3 °F 36.6 °F 30.12 in SSW 1.4 mph 10 mph 32.2% 0.00 in
15:44 67.2 °F 36 °F 30.11 in Calm     31.6% 0.00 in
15:49 67.4 °F 36.1 °F 30.11 in Calm     31.4% 0.00 in
15:54 68 °F 36.5 °F 30.11 in Calm     31.4% 0.00 in
16:04 67.9 °F 36.9 °F 30.11 in Calm   2 mph 32% 0.00 in
16:09 67.7 °F 37.1 °F 30.11 in Calm   4 mph 32.4% 0.00 in
16:14 68 °F 37.5 °F 30.11 in Calm   4 mph 32.6% 0.00 in
16:19 68.2 °F 37.8 °F 30.11 in Calm     32.8% 0.00 in
16:24 67.9 °F 36.7 °F 30.11 in Calm     31.8% 0.00 in
16:29 67.7 °F 36.9 °F 30.11 in Calm     32.2% 0.00 in
16:34 67.6 °F 36.7 °F 30.11 in Calm     32% 0.00 in
16:39 67.2 °F 36.5 °F 30.11 in Calm     32.2% 0.00 in
16:44 67 °F 36.3 °F 30.11 in Calm   2 mph 32.2% 0.00 in
16:49 67 °F 36.3 °F 30.11 in Calm   2 mph 32.2% 0.00 in
16:54 66.9 °F 35.9 °F 30.11 in Calm   2 mph 31.8% 0.00 in
16:59 66.8 °F 36.3 °F 30.11 in Calm   4 mph 32.4% 0.00 in
17:04 66.4 °F 36 °F 30.11 in Calm   2 mph 32.4% 0.00 in
17:09 66.1 °F 35.4 °F 30.11 in Calm   7 mph 32% 0.00 in
17:14 65.9 °F 36.4 °F 30.11 in Calm   4 mph 33.6% 0.00 in
17:19 65.7 °F 35.8 °F 30.11 in Calm   4 mph 33% 0.00 in
17:24 65.6 °F 36.6 °F 30.11 in Calm   2 mph 34.2% 0.00 in
17:29 65.6 °F 37.4 °F 30.11 in Calm   4 mph 35.4% 0.00 in
17:34 65.3 °F 37.9 °F 30.11 in SSW 1.4 mph 7 mph 36.4% 0.00 in
17:39 65 °F 37.8 °F 30.11 in Calm   7 mph 36.6% 0.00 in
17:44 64.6 °F 38.4 °F 30.11 in Calm   9 mph 38% 0.00 in
17:49 64 °F 38.3 °F 30.11 in Calm   9 mph 38.6% 0.00 in
17:54 63.7 °F 38.1 °F 30.11 in Calm   9 mph 38.8% 0.00 in
17:59 63.4 °F 38.3 °F 30.11 in Calm   9 mph 39.4% 0.00 in
18:04 63.1 °F 37.8 °F 30.11 in Calm   2 mph 39.2% 0.00 in
18:09 62.8 °F 38.5 °F 30.11 in Calm   2 mph 40.6% 0.00 in
18:14 62.4 °F 38.4 °F 30.11 in Calm     41% 0.00 in
18:19 62.1 °F 38.1 °F 30.11 in Calm     41% 0.00 in
18:24 61.7 °F 37.7 °F 30.11 in Calm   2 mph 41% 0.00 in
18:29 61.4 °F 37.5 °F 30.12 in Calm     41% 0.00 in
18:34 61.1 °F 37.4 °F 30.12 in SSE 0.4 mph 2 mph 41.2% 0.00 in
18:39 60.9 °F 37.6 °F 30.12 in SSE 0.4 mph 2 mph 42% 0.00 in
18:44 60.7 °F 37.8 °F 30.12 in Calm   2 mph 42.6% 0.00 in
18:49 60.2 °F 38.2 °F 30.12 in Calm     44% 0.00 in
18:54 59.5 °F 38.4 °F 30.12 in Calm     45.6% 0.00 in
18:59 58.7 °F 38.4 °F 30.12 in Calm     46.8% 0.00 in
19:04 58.1 °F 38.3 °F 30.12 in Calm     47.8% 0.00 in
19:09 57.5 °F 38.5 °F 30.12 in Calm     49% 0.00 in
19:14 57 °F 38.1 °F 30.12 in Calm     49.2% 0.00 in
19:19 56.6 °F 38.2 °F 30.12 in Calm     50% 0.00 in
19:24 56.2 °F 37.8 °F 30.12 in Calm     50% 0.00 in
19:29 55.9 °F 38 °F 30.12 in Calm     51% 0.00 in
19:34 55.4 °F 38.3 °F 30.12 in Calm     52.4% 0.00 in
19:39 55.1 °F 38.1 °F 30.12 in Calm     52.6% 0.00 in
19:44 54.9 °F 38 °F 30.13 in Calm     52.8% 0.00 in
19:49 54.7 °F 37.4 °F 30.13 in Calm     52% 0.00 in
19:54 54.8 °F 37.5 °F 30.13 in Calm     52% 0.00 in
19:59 54.9 °F 37.6 °F 30.13 in Calm     52% 0.00 in
20:04 54.9 °F 37.6 °F 30.13 in Calm     52% 0.00 in
20:09 54.7 °F 37.7 °F 30.13 in Calm     52.6% 0.00 in
20:14 54.4 °F 37.9 °F 30.13 in Calm     53.6% 0.00 in
20:19 53.9 °F 37.6 °F 30.13 in Calm     54% 0.00 in
20:24 53.5 °F 37.9 °F 30.14 in Calm     55.4% 0.00 in
20:29 52.8 °F 37.7 °F 30.14 in Calm     56.4% 0.00 in
20:34 52.1 °F 37.2 °F 30.14 in Calm     56.6% 0.00 in
20:39 51.7 °F 36.9 °F 30.14 in Calm     57% 0.00 in
20:44 51.2 °F 36.6 °F 30.14 in Calm     57.2% 0.00 in
20:49 50.7 °F 36.9 °F 30.14 in Calm     59% 0.00 in
20:59 49.7 °F 36.8 °F 30.15 in Calm     61% 0.00 in
21:04 49.3 °F 37.2 °F 30.15 in Calm     63% 0.00 in
21:09 49 °F 37.2 °F 30.15 in Calm     63.8% 0.00 in
21:14 48.6 °F 37.1 °F 30.16 in Calm     64.2% 0.00 in
21:19 48.2 °F 37.2 °F 30.16 in Calm     65.4% 0.00 in
21:24 47.9 °F 37.6 °F 30.16 in Calm     67.2% 0.00 in
21:29 47.6 °F 37.8 °F 30.16 in Calm     68.6% 0.00 in
21:34 47.4 °F 37.8 °F 30.16 in Calm     69.2% 0.00 in
21:39 47.1 °F 37.8 °F 30.17 in Calm     70% 0.00 in
21:44 46.8 °F 37.6 °F 30.17 in Calm     70.2% 0.00 in
21:49 46.5 °F 38.2 °F 30.17 in Calm     72.6% 0.00 in
Compliments of Weather Underground - 4 mb